Time;durP1;ratioP1;P1;durP2;ratioP2;P2;SDS_P1;SDS_P2;PMS_P1;PMS_P2;Temp;Humidity;BMP_temperature;BMP_pressure;BME280_temperature;BME280_humidity;BME280_pressure;Samples;Min_cycle;Max_cycle;Signal;HPM_P1;HPM_P2
2023/07/17 00:00:15;;;;;;;0.10;0.10;;;;;;;18.05;nan;100644.25;5010796;28;20057;-82
2023/07/17 00:02:44;;;;;;;0.10;0.10;;;;;;;18.28;nan;100656.50;5010351;28;20413;-82
2023/07/17 00:05:10;;;;;;;0.10;0.10;;;;;;;18.14;nan;100661.78;5021340;28;20042;-82
2023/07/17 00:07:39;;;;;;;0.10;0.10;;;;;;;18.02;nan;100661.53;5020512;28;20034;-82
2023/07/17 00:10:06;;;;;;;0.10;0.10;;;;;;;17.92;nan;100654.88;5006519;28;20042;-82
2023/07/17 00:12:40;;;;;;;0.10;0.10;;;;;;;17.91;nan;100655.91;5020961;28;20102;-82
2023/07/17 00:15:08;;;;;;;0.10;0.10;;;;;;;17.88;nan;100650.94;5019650;28;20302;-82
2023/07/17 00:17:34;;;;;;;0.10;0.10;;;;;;;17.81;nan;100667.78;5020269;28;20042;-82
2023/07/17 00:20:06;;;;;;;;;;;;;;;17.63;nan;100664.72;5019975;28;20044;-82
2023/07/17 00:22:32;;;;;;;;;;;;;;;17.56;nan;100658.50;5018756;28;19963;-83
2023/07/17 00:24:58;;;;;;;0.10;0.10;;;;;;;17.55;nan;100659.53;5020510;28;19918;-83
2023/07/17 00:27:24;;;;;;;0.10;0.10;;;;;;;17.53;nan;100657.03;5019844;28;20033;-82
2023/07/17 00:29:49;;;;;;;0.10;0.10;;;;;;;17.48;nan;100648.78;5019299;28;20523;-82
2023/07/17 00:32:18;;;;;;;0.10;0.10;;;;;;;17.39;nan;100645.41;5036573;28;20606;-83
2023/07/17 00:34:43;;;;;;;0.10;0.10;;;;;;;17.52;nan;100650.06;5020633;28;20747;-82
2023/07/17 00:37:09;;;;;;;;;;;;;;;17.38;nan;100654.47;5034675;28;20048;-81
2023/07/17 00:39:37;;;;;;;;;;;;;;;17.25;nan;100648.19;5023694;28;19917;-82
2023/07/17 00:42:05;;;;;;;0.10;0.10;;;;;;;17.23;nan;100645.69;5020429;28;19952;-82
2023/07/17 00:44:31;;;;;;;;;;;;;;;17.19;nan;100650.59;5017902;28;20041;-82
2023/07/17 00:47:01;;;;;;;;;;;;;;;17.11;nan;100653.44;5019818;28;20283;-83
2023/07/17 00:49:29;;;;;;;0.10;0.10;;;;;;;17.03;nan;100656.22;5019539;28;19913;-82
2023/07/17 00:51:58;;;;;;;;;;;;;;;16.95;nan;100656.34;5046727;28;20303;-82
2023/07/17 00:54:24;;;;;;;;;;;;;;;16.92;nan;100648.69;5010106;28;19967;-82
2023/07/17 00:56:50;;;;;;;;;;;;;;;16.86;nan;100647.63;5019914;28;19918;-82
2023/07/17 00:59:19;;;;;;;0.10;0.10;;;;;;;16.81;nan;100650.03;5026271;28;19924;-82
2023/07/17 01:01:55;;;;;;;;;;;;;;;16.82;nan;100648.19;5019975;28;20061;-82
2023/07/17 01:04:23;;;;;;;;;;;;;;;16.84;nan;100652.31;5021466;28;19936;-82
2023/07/17 01:06:48;;;;;;;;;;;;;;;16.79;nan;100651.25;5021770;28;19913;-82
2023/07/17 01:09:17;;;;;;;0.10;0.10;;;;;;;16.80;nan;100653.72;5022062;28;19913;-82
2023/07/17 01:11:43;;;;;;;0.10;0.10;;;;;;;16.83;nan;100655.16;5038194;28;20080;-81
2023/07/17 01:14:19;;;;;;;0.10;0.10;;;;;;;16.82;nan;100658.88;5019471;28;20038;-82
2023/07/17 01:16:50;;;;;;;0.10;0.10;;;;;;;16.75;nan;100661.44;5023042;28;20053;-81
2023/07/17 01:19:16;;;;;;;0.10;0.10;;;;;;;16.72;nan;100664.50;5021147;28;20049;-82
2023/07/17 01:22:04;;;;;;;0.10;0.10;;;;;;;16.75;nan;100656.91;5019759;28;20041;-82
2023/07/17 01:24:30;;;;;;;0.10;0.10;;;;;;;16.73;nan;100664.31;5018188;28;20191;-82
2023/07/17 01:26:56;;;;;;;0.10;0.10;;;;;;;16.72;nan;100661.81;5018198;28;20060;-82
2023/07/17 01:29:24;;;;;;;0.10;0.10;;;;;;;16.92;nan;100654.88;5016028;28;20429;-81
2023/07/17 01:31:55;;;;;;;0.10;0.10;;;;;;;17.09;nan;100654.59;5014738;28;20409;-82
2023/07/17 01:34:24;;;;;;;;;;;;;;;16.94;nan;100668.03;5016553;28;20222;-82
2023/07/17 01:36:51;;;;;;;;;;;;;;;16.86;nan;100670.84;5019948;28;20476;-82
2023/07/17 01:39:17;;;;;;;0.10;0.10;;;;;;;16.80;nan;100661.72;5014799;28;20354;-82
2023/07/17 01:41:42;;;;;;;;;;;;;;;16.74;nan;100665.94;5020450;28;20036;-82
2023/07/17 01:44:08;;;;;;;0.10;0.10;;;;;;;16.74;nan;100659.78;5008467;28;19985;-82
2023/07/17 01:46:34;;;;;;;0.10;0.10;;;;;;;17.02;nan;100659.06;5014615;28;20416;-82
2023/07/17 01:49:03;;;;;;;0.10;0.10;;;;;;;17.21;nan;100663.78;5015674;28;20448;-82
2023/07/17 01:51:28;;;;;;;0.10;0.10;;;;;;;17.40;nan;100662.31;5021582;28;20420;-82
2023/07/17 01:53:54;;;;;;;0.10;0.10;;;;;;;17.30;nan;100669.81;5017609;28;20045;-82
2023/07/17 01:56:19;;;;;;;;;;;;;;;17.14;nan;100663.72;5016487;28;20038;-82
2023/07/17 01:58:45;;;;;;;0.10;0.10;;;;;;;17.03;nan;100666.91;5018809;28;19929;-82
2023/07/17 02:01:11;;;;;;;0.00;0.00;;;;;;;17.26;nan;100671.22;5032246;28;20407;-83
2023/07/17 02:03:37;;;;;;;0.10;0.10;;;;;;;17.25;nan;100672.22;5042685;28;20065;-82
2023/07/17 02:06:03;;;;;;;;;;;;;;;17.12;nan;100668.44;5017772;28;20042;-82
2023/07/17 02:08:29;;;;;;;0.10;0.10;;;;;;;17.03;nan;100669.56;5018017;28;19913;-82
2023/07/17 02:10:55;;;;;;;0.10;0.10;;;;;;;16.93;nan;100667.22;5016568;28;20038;-82
2023/07/17 02:13:21;;;;;;;0.10;0.10;;;;;;;16.88;nan;100664.28;5015517;28;20616;-82
2023/07/17 02:15:47;;;;;;;0.10;0.10;;;;;;;16.86;nan;100663.66;5016126;28;20069;-82
2023/07/17 02:18:15;;;;;;;0.10;0.10;;;;;;;16.79;nan;100665.41;5015652;28;20133;-82
2023/07/17 02:20:40;;;;;;;;;;;;;;;16.71;nan;100668.19;5027229;28;20037;-82
2023/07/17 02:23:08;;;;;;;;;;;;;;;16.64;nan;100668.09;5018737;28;19925;-82
2023/07/17 02:25:40;;;;;;;0.10;0.10;;;;;;;16.59;nan;100664.31;5015624;28;19917;-81
2023/07/17 02:28:07;;;;;;;0.10;0.10;;;;;;;16.66;nan;100670.56;5013311;28;20417;-81
2023/07/17 02:30:32;;;;;;;0.10;0.10;;;;;;;16.86;nan;100671.66;5015428;28;20401;-82
2023/07/17 02:33:01;;;;;;;0.10;0.10;;;;;;;16.96;nan;100682.03;5015121;28;20945;-83
2023/07/17 02:35:26;;;;;;;0.00;0.00;;;;;;;17.05;nan;100678.22;5029255;28;20481;-82
2023/07/17 02:37:52;;;;;;;0.00;0.00;;;;;;;17.18;nan;100681.03;5026627;28;20830;-82
2023/07/17 02:40:20;;;;;;;0.10;0.10;;;;;;;16.98;nan;100688.00;5017263;28;20033;-82
2023/07/17 02:42:47;;;;;;;;;;;;;;;16.82;nan;100688.25;5012653;28;20284;-82
2023/07/17 02:45:17;;;;;;;0.10;0.10;;;;;;;16.80;nan;100693.75;5017271;28;20063;-83
2023/07/17 02:47:43;;;;;;;0.10;0.10;;;;;;;17.00;nan;100688.66;5015339;28;20765;-82
2023/07/17 02:50:09;;;;;;;0.10;0.10;;;;;;;16.86;nan;100694.88;5015048;28;20048;-82
2023/07/17 02:52:36;;;;;;;0.10;0.10;;;;;;;16.72;nan;100689.34;5033311;28;20033;-82
2023/07/17 02:55:05;;;;;;;0.10;0.10;;;;;;;16.68;nan;100695.25;5018155;28;20125;-82
2023/07/17 02:57:36;;;;;;;0.10;0.10;;;;;;;16.67;nan;100705.09;5017589;28;20030;-82
2023/07/17 03:00:09;;;;;;;0.10;0.10;;;;;;;16.69;nan;100700.41;4999504;28;20048;-82
2023/07/17 03:02:39;;;;;;;0.10;0.10;;;;;;;16.74;nan;100706.00;5015060;28;20399;-82
2023/07/17 03:05:08;;;;;;;0.10;0.10;;;;;;;16.80;nan;100703.63;5017108;28;20049;-82
2023/07/17 03:07:47;;;;;;;0.10;0.10;;;;;;;16.92;nan;100707.47;5018553;28;20172;-83
2023/07/17 03:10:16;;;;;;;0.10;0.10;;;;;;;16.96;nan;100714.91;5017078;28;20038;-82
2023/07/17 03:12:42;;;;;;;0.10;0.10;;;;;;;16.98;nan;100715.56;5016770;28;20040;-82
2023/07/17 03:15:11;;;;;;;;;;;;;;;16.99;nan;100724.38;5018885;28;20103;-82
2023/07/17 03:17:37;;;;;;;0.10;0.10;;;;;;;16.93;nan;100720.63;5025877;28;19937;-82
2023/07/17 03:20:09;;;;;;;0.10;0.10;;;;;;;16.92;nan;100724.34;5015966;28;20034;-82
2023/07/17 03:22:37;;;;;;;0.10;0.10;;;;;;;16.96;nan;100720.25;5019640;28;20116;-82
2023/07/17 03:25:08;;;;;;;0.10;0.10;;;;;;;17.02;nan;100712.50;5036408;28;20034;-82
2023/07/17 03:27:34;;;;;;;0.10;0.10;;;;;;;17.30;nan;100717.91;5016921;28;20409;-83
2023/07/17 03:30:04;;;;;;;0.10;0.10;;;;;;;17.29;nan;100716.28;5016613;28;20041;-82
2023/07/17 03:32:39;;;;;;;0.10;0.10;;;;;;;17.28;nan;100717.28;5017023;28;20037;-82
2023/07/17 03:35:05;;;;;;;0.10;0.10;;;;;;;17.28;nan;100714.59;5018355;28;20098;-82
2023/07/17 03:37:31;;;;;;;0.10;0.10;;;;;;;17.27;nan;100716.44;5028374;28;20064;-83
2023/07/17 03:39:56;;;;;;;;;;;;;;;17.23;nan;100714.34;5020590;28;20053;-83
2023/07/17 03:42:22;;;;;;;;;;;;;;;17.11;nan;100722.03;5017764;28;20160;-82
2023/07/17 03:44:47;;;;;;;;;;;;;;;16.95;nan;100725.81;5020936;28;19913;-83
2023/07/17 03:47:16;;;;;;;0.10;0.10;;;;;;;16.82;nan;100736.31;5021830;28;19940;-82
2023/07/17 03:49:42;;;;;;;0.10;0.10;;;;;;;16.76;nan;100741.38;5021935;28;20125;-83
2023/07/17 03:52:10;;;;;;;;;;;;;;;16.69;nan;100743.13;5046373;28;20041;-82
2023/07/17 03:54:38;;;;;;;0.00;0.00;;;;;;;16.67;nan;100736.31;5021943;28;19975;-83
2023/07/17 03:57:04;;;;;;;0.10;0.10;;;;;;;16.91;nan;100732.53;5036227;28;20980;-82
2023/07/17 03:59:47;;;;;;;0.10;0.10;;;;;;;17.12;nan;100731.72;5013548;28;20407;-83
2023/07/17 04:02:12;;;;;;;;;;;;;;;16.98;nan;100738.78;5024661;28;20080;-84
2023/07/17 04:04:37;;;;;;;;;;;;;;;16.91;nan;100736.03;5023390;28;19913;-83
2023/07/17 04:07:03;;;;;;;0.10;0.10;;;;;;;16.91;nan;100729.84;5022513;28;19914;-83
2023/07/17 04:09:29;;;;;;;0.10;0.10;;;;;;;16.93;nan;100734.00;5022163;28;20166;-84
2023/07/17 04:11:55;;;;;;;;;;;;;;;16.95;nan;100733.81;5039454;28;20427;-83
2023/07/17 04:14:20;;;;;;;;;;;;;;;16.94;nan;100732.13;5036440;28;19917;-84
2023/07/17 04:16:46;;;;;;;0.10;0.10;;;;;;;16.97;nan;100745.97;5023294;28;19913;-83
2023/07/17 04:19:11;;;;;;;0.10;0.10;;;;;;;16.94;nan;100751.66;5022315;28;20076;-83
2023/07/17 04:21:37;;;;;;;0.10;0.10;;;;;;;16.95;nan;100741.81;5022649;28;20034;-82
2023/07/17 04:24:05;;;;;;;;;;;;;;;16.96;nan;100748.81;5036599;28;20518;-83
2023/07/17 04:26:31;;;;;;;0.10;0.10;;;;;;;17.01;nan;100750.91;5016309;28;20389;-83
2023/07/17 04:28:56;;;;;;;0.10;0.10;;;;;;;17.07;nan;100750.19;5022725;28;20065;-83
2023/07/17 04:31:25;;;;;;;0.10;0.10;;;;;;;17.11;nan;100749.63;5021386;28;20118;-82
2023/07/17 04:33:54;;;;;;;0.10;0.10;;;;;;;17.22;nan;100758.97;5019899;28;20041;-84
2023/07/17 04:36:19;;;;;;;0.10;0.10;;;;;;;17.28;nan;100768.91;5020702;28;20037;-84
2023/07/17 04:38:47;;;;;;;0.10;0.10;;;;;;;17.36;nan;100765.28;5016487;28;20116;-83
2023/07/17 04:41:17;;;;;;;0.10;0.10;;;;;;;17.37;nan;100770.41;5017826;28;20042;-84
2023/07/17 04:43:45;;;;;;;0.10;0.10;;;;;;;17.44;nan;100775.84;5025512;28;20198;-83
2023/07/17 04:46:14;;;;;;;0.10;0.10;;;;;;;17.71;nan;100765.38;5031233;28;20499;-82
2023/07/17 04:48:39;;;;;;;0.10;0.10;;;;;;;17.76;nan;100768.31;5020749;28;20109;-83
2023/07/17 04:51:06;;;;;;;0.10;0.10;;;;;;;17.85;nan;100771.69;5021316;28;20499;-83
2023/07/17 04:53:33;;;;;;;0.10;0.10;;;;;;;17.93;nan;100769.72;5020003;28;20388;-83
2023/07/17 04:55:59;;;;;;;0.10;0.10;;;;;;;18.02;nan;100773.91;5036309;28;20053;-83
2023/07/17 04:58:27;;;;;;;0.10;0.10;;;;;;;18.10;nan;100772.94;5017376;28;20634;-83
2023/07/17 05:01:04;;;;;;;0.10;0.10;;;;;;;18.21;nan;100780.44;5019323;28;20041;-84
2023/07/17 05:03:30;;;;;;;0.20;0.20;;;;;;;18.30;nan;100778.41;5035517;28;20034;-83
2023/07/17 05:05:56;;;;;;;0.10;0.10;;;;;;;18.38;nan;100783.63;5021186;28;20034;-83
2023/07/17 05:08:22;;;;;;;0.10;0.10;;;;;;;18.43;nan;100783.03;5019823;28;20049;-83
2023/07/17 05:11:04;;;;;;;0.10;0.10;;;;;;;18.54;nan;100776.28;5004198;28;20057;-83
2023/07/17 05:13:35;;;;;;;0.10;0.10;;;;;;;18.61;nan;100787.84;5022366;28;20056;-83
2023/07/17 05:16:01;;;;;;;0.10;0.10;;;;;;;18.73;nan;100775.53;5021615;28;20042;-84
2023/07/17 05:18:26;;;;;;;0.10;0.10;;;;;;;18.89;nan;100779.78;5020688;28;20100;-83
2023/07/17 05:20:52;;;;;;;0.10;0.10;;;;;;;19.00;nan;100786.44;5022225;28;20036;-82
2023/07/17 05:23:18;;;;;;;0.10;0.10;;;;;;;19.08;nan;100781.69;5036123;28;20041;-83
2023/07/17 05:26:03;;;;;;;0.10;0.10;;;;;;;19.23;nan;100783.38;5020055;28;20034;-83
2023/07/17 05:28:29;;;;;;;0.10;0.10;;;;;;;19.31;nan;100785.88;5032977;28;20029;-83
2023/07/17 05:30:56;;;;;;;0.10;0.10;;;;;;;19.45;nan;100787.56;5018525;28;20034;-83
2023/07/17 05:33:22;;;;;;;0.10;0.10;;;;;;;19.53;nan;100787.38;5033381;28;20038;-84
2023/07/17 05:35:48;;;;;;;0.10;0.10;;;;;;;19.67;nan;100788.22;5019639;28;20030;-81
2023/07/17 05:38:13;;;;;;;0.10;0.10;;;;;;;19.80;nan;100783.91;5016107;28;20115;-83
2023/07/17 05:40:40;;;;;;;0.10;0.10;;;;;;;19.90;nan;100785.16;5018876;28;20525;-84
2023/07/17 05:43:06;;;;;;;0.10;0.10;;;;;;;20.03;nan;100787.00;5016923;28;20037;-83
2023/07/17 05:45:32;;;;;;;0.10;0.10;;;;;;;20.17;nan;100790.50;5016015;28;20086;-83
2023/07/17 05:47:58;;;;;;;0.10;0.10;;;;;;;20.33;nan;100792.75;5018386;28;20022;-82
2023/07/17 05:50:25;;;;;;;0.10;0.10;;;;;;;20.54;nan;100799.69;5019968;28;20026;-84
2023/07/17 05:52:51;;;;;;;0.10;0.10;;;;;;;20.88;nan;100795.09;5018345;28;20215;-82
2023/07/17 05:55:17;;;;;;;0.10;0.10;;;;;;;21.21;nan;100796.78;5017821;28;20034;-83
2023/07/17 05:57:45;;;;;;;0.10;0.10;;;;;;;21.55;nan;100800.97;5018777;28;20281;-84
2023/07/17 06:00:14;;;;;;;0.10;0.10;;;;;;;21.92;nan;100795.69;5015094;28;20049;-82
2023/07/17 06:02:58;;;;;;;0.10;0.10;;;;;;;22.30;nan;100796.63;5012401;28;20034;-83
2023/07/17 06:05:24;;;;;;;0.00;0.00;;;;;;;22.41;nan;100798.59;5033142;28;20042;-83
2023/07/17 06:07:49;;;;;;;0.00;0.00;;;;;;;22.67;nan;100797.50;5017979;28;20030;-83
2023/07/17 06:10:18;;;;;;;0.03;0.03;;;;;;;22.79;nan;100809.16;5017749;28;20046;-85
2023/07/17 06:12:50;;;;;;;0.00;0.00;;;;;;;23.01;nan;100808.72;5011613;28;20041;-83
2023/07/17 06:15:16;;;;;;;0.00;0.00;;;;;;;23.29;nan;100810.84;5003912;28;20045;-84
2023/07/17 06:17:41;;;;;;;0.10;0.10;;;;;;;23.61;nan;100806.00;5014786;28;20038;-83
2023/07/17 06:20:09;;;;;;;0.00;0.00;;;;;;;23.77;nan;100807.25;5013194;28;20376;-84
2023/07/17 06:22:34;;;;;;;0.00;0.00;;;;;;;23.98;nan;100808.56;5013834;28;20046;-84
2023/07/17 06:24:59;;;;;;;0.03;0.03;;;;;;;24.17;nan;100801.97;5007502;28;20050;-84
2023/07/17 06:27:24;;;;;;;0.00;0.00;;;;;;;24.35;nan;100806.44;4997452;28;20022;-84
2023/07/17 06:29:50;;;;;;;0.00;0.00;;;;;;;24.53;nan;100812.81;4996041;28;20041;-83
2023/07/17 06:32:15;;;;;;;0.00;0.00;;;;;;;24.79;nan;100812.28;5009131;28;20037;-85
2023/07/17 06:34:41;;;;;;;0.00;0.00;;;;;;;24.84;nan;100799.91;5016504;28;20038;-82
2023/07/17 06:37:07;;;;;;;0.00;0.00;;;;;;;25.09;nan;100805.81;5036546;28;20731;-81
2023/07/17 06:39:33;;;;;;;0.00;0.00;;;;;;;25.49;nan;100802.25;5014791;28;20034;-83
2023/07/17 06:41:58;;;;;;;0.00;0.00;;;;;;;25.84;nan;100788.47;5014044;28;20042;-84
2023/07/17 06:44:23;;;;;;;0.00;0.00;;;;;;;25.92;nan;100791.88;5008723;28;20515;-82
2023/07/17 06:46:48;;;;;;;0.00;0.00;;;;;;;25.88;nan;100796.94;5013343;28;20304;-83
2023/07/17 06:49:13;;;;;;;0.00;0.00;;;;;;;25.84;nan;100802.03;5022290;28;20548;-83
2023/07/17 06:51:39;;;;;;;0.00;0.00;;;;;;;25.77;nan;100798.66;5029471;28;20272;-84
2023/07/17 06:54:04;;;;;;;0.00;0.00;;;;;;;25.92;nan;100800.00;5014999;28;20029;-84
2023/07/17 06:56:29;;;;;;;0.00;0.00;;;;;;;26.26;nan;100811.63;5005990;28;20669;-84
2023/07/17 06:58:54;;;;;;;0.00;0.00;;;;;;;26.37;nan;100807.19;5010052;28;20284;-84
2023/07/17 07:01:20;;;;;;;0.00;0.00;;;;;;;26.33;nan;100811.44;5011702;28;20299;-83
2023/07/17 07:03:45;;;;;;;0.00;0.00;;;;;;;26.62;nan;100818.38;5011134;28;20033;-83
2023/07/17 07:06:10;;;;;;;0.00;0.00;;;;;;;26.97;nan;100816.38;5009553;28;20300;-83
2023/07/17 07:08:36;;;;;;;0.00;0.00;;;;;;;27.34;nan;100821.97;5011647;28;20034;-82
2023/07/17 07:11:02;;;;;;;0.00;0.00;;;;;;;27.54;nan;100824.84;5013495;28;20217;-83
2023/07/17 07:13:28;;;;;;;0.00;0.00;;;;;;;27.56;nan;100827.31;5014757;28;20044;-85
2023/07/17 07:15:54;;;;;;;0.00;0.00;;;;;;;27.57;nan;100837.09;5014283;28;20034;-84
2023/07/17 07:18:20;;;;;;;0.00;0.00;;;;;;;27.50;nan;100821.00;5013134;28;20038;-83
2023/07/17 07:20:47;;;;;;;0.00;0.00;;;;;;;27.57;nan;100834.38;5014988;28;20033;-82
2023/07/17 07:23:13;;;;;;;0.00;0.00;;;;;;;27.87;nan;100838.50;5014676;28;20387;-82
2023/07/17 07:25:38;;;;;;;0.00;0.00;;;;;;;28.09;nan;100841.91;5016404;28;20034;-85
2023/07/17 07:28:04;;;;;;;0.00;0.00;;;;;;;28.20;nan;100839.25;5014742;28;20030;-82
2023/07/17 07:30:30;;;;;;;0.00;0.00;;;;;;;28.22;nan;100832.50;5014740;28;20265;-83
2023/07/17 07:32:55;;;;;;;0.00;0.00;;;;;;;28.19;nan;100832.19;5013729;28;20514;-83
2023/07/17 07:35:21;;;;;;;0.00;0.00;;;;;;;28.06;nan;100837.00;5015429;28;20042;-83
2023/07/17 07:37:46;;;;;;;0.00;0.00;;;;;;;28.09;nan;100835.66;5021360;28;20079;-83
2023/07/17 07:40:12;;;;;;;0.00;0.00;;;;;;;28.47;nan;100839.19;5029076;28;20034;-82
2023/07/17 07:42:39;;;;;;;0.00;0.00;;;;;;;28.95;nan;100840.78;5011404;28;20495;-85
2023/07/17 07:45:05;;;;;;;0.00;0.00;;;;;;;29.50;nan;100840.38;5014950;28;20026;-83
2023/07/17 07:47:31;;;;;;;0.00;0.00;;;;;;;29.77;nan;100849.19;5014771;28;20034;-83
2023/07/17 07:49:56;;;;;;;0.00;0.00;;;;;;;29.73;nan;100834.44;5019018;28;20038;-83
2023/07/17 07:52:22;;;;;;;0.00;0.00;;;;;;;29.75;nan;100848.63;5018454;28;20045;-83
2023/07/17 07:54:47;;;;;;;0.00;0.00;;;;;;;29.76;nan;100850.25;5032429;28;20085;-83
2023/07/17 07:57:12;;;;;;;0.00;0.00;;;;;;;29.63;nan;100845.31;5015163;28;20124;-84
2023/07/17 07:59:38;;;;;;;0.00;0.00;;;;;;;29.73;nan;100855.44;5032475;28;20034;-83
2023/07/17 08:02:03;;;;;;;0.00;0.00;;;;;;;29.88;nan;100846.44;5017209;28;20304;-83
2023/07/17 08:04:29;;;;;;;0.00;0.00;;;;;;;30.25;nan;100849.72;5016558;28;20037;-83
2023/07/17 08:06:55;;;;;;;0.00;0.00;;;;;;;30.45;nan;100850.75;5015710;28;20172;-83
2023/07/17 08:09:21;;;;;;;0.00;0.00;;;;;;;30.73;nan;100845.75;5018194;28;20056;-83
2023/07/17 08:11:46;;;;;;;0.00;0.00;;;;;;;30.76;nan;100850.66;5017501;28;20034;-83
2023/07/17 08:14:11;;;;;;;0.00;0.00;;;;;;;31.00;nan;100848.94;5014947;28;20499;-84
2023/07/17 08:16:36;;;;;;;0.00;0.00;;;;;;;31.13;nan;100847.50;5016754;28;20261;-83
2023/07/17 08:19:02;;;;;;;0.00;0.00;;;;;;;31.24;nan;100845.53;5017319;28;20534;-84
2023/07/17 08:21:27;;;;;;;0.00;0.00;;;;;;;31.70;nan;100856.16;5014564;28;20277;-83
2023/07/17 08:23:52;;;;;;;0.00;0.00;;;;;;;32.17;nan;100852.75;5016869;28;20279;-83
2023/07/17 08:26:18;;;;;;;0.00;0.00;;;;;;;32.37;nan;100857.22;4995598;28;20065;-84
2023/07/17 08:28:43;;;;;;;0.00;0.00;;;;;;;32.76;nan;100848.03;5002938;28;20045;-83
2023/07/17 08:31:09;;;;;;;0.00;0.00;;;;;;;32.97;nan;100854.06;5016116;28;20041;-84
2023/07/17 08:33:34;;;;;;;0.00;0.00;;;;;;;33.15;nan;100852.47;5015247;28;20049;-84
2023/07/17 08:35:59;;;;;;;0.00;0.00;;;;;;;33.15;nan;100852.47;5024333;28;20117;-83
2023/07/17 08:38:25;;;;;;;0.00;0.00;;;;;;;33.37;nan;100853.81;5017793;28;20447;-85
2023/07/17 08:40:53;;;;;;;0.00;0.00;;;;;;;33.72;nan;100846.16;5030628;28;20269;-84
2023/07/17 08:43:18;;;;;;;0.00;0.00;;;;;;;33.35;nan;100848.63;5014186;28;20499;-83
2023/07/17 08:45:46;;;;;;;0.00;0.00;;;;;;;33.42;nan;100842.78;5029549;28;20047;-83
2023/07/17 08:48:13;;;;;;;0.00;0.00;;;;;;;33.75;nan;100846.41;5014733;28;20026;-83
2023/07/17 08:50:38;;;;;;;0.00;0.00;;;;;;;34.28;nan;100849.88;5015403;28;20034;-83
2023/07/17 08:53:06;;;;;;;0.00;0.00;;;;;;;34.37;nan;100832.41;5014857;28;20088;-85
2023/07/17 08:55:32;;;;;;;0.00;0.00;;;;;;;34.85;nan;100844.91;5013294;28;20037;-83
2023/07/17 08:57:59;;;;;;;0.00;0.00;;;;;;;34.80;nan;100834.84;5016038;28;20093;-83
2023/07/17 09:00:24;;;;;;;0.00;0.00;;;;;;;35.26;nan;100835.78;5016891;28;20030;-83
2023/07/17 09:02:50;;;;;;;0.00;0.00;;;;;;;35.40;nan;100839.28;5017309;28;20034;-84
2023/07/17 09:05:16;;;;;;;0.00;0.00;;;;;;;35.62;nan;100830.25;5013612;28;20072;-84
2023/07/17 09:07:41;;;;;;;0.00;0.00;;;;;;;35.15;nan;100821.44;5014932;28;20041;-83
2023/07/17 09:10:23;;;;;;;0.00;0.00;;;;;;;35.21;nan;100833.16;5015320;28;20034;-84
2023/07/17 09:12:55;;;;;;;0.00;0.00;;;;;;;34.43;nan;100822.94;5008507;28;20039;-84
2023/07/17 09:15:22;;;;;;;0.00;0.00;;;;;;;33.66;nan;100820.75;5015589;28;20044;-84
2023/07/17 09:17:47;;;;;;;0.00;0.00;;;;;;;32.71;nan;100812.50;5016137;28;20044;-83
2023/07/17 09:20:16;;;;;;;0.00;0.00;;;;;;;32.04;nan;100817.88;5015208;28;20041;-84
2023/07/17 09:22:42;;;;;;;0.00;0.00;;;;;;;32.80;nan;100826.38;5019529;28;20379;-84
2023/07/17 09:25:08;;;;;;;0.00;0.00;;;;;;;33.60;nan;100822.75;5016867;28;20042;-82
2023/07/17 09:27:45;;;;;;;0.00;0.00;;;;;;;34.23;nan;100820.59;5024828;28;20472;-84
2023/07/17 09:30:12;;;;;;;0.00;0.00;;;;;;;34.20;nan;100818.44;5014094;28;20130;-83
2023/07/17 09:32:38;;;;;;;0.00;0.00;;;;;;;34.17;nan;100824.56;5015059;28;20042;-83
2023/07/17 09:35:04;;;;;;;0.00;0.00;;;;;;;33.51;nan;100827.25;5009795;28;20113;-83
2023/07/17 09:37:31;;;;;;;0.00;0.00;;;;;;;33.92;nan;100829.38;5024288;28;20137;-83
2023/07/17 09:39:58;;;;;;;0.00;0.00;;;;;;;33.96;nan;100818.59;5013528;28;20088;-83
2023/07/17 09:42:24;;;;;;;0.00;0.00;;;;;;;34.65;nan;100815.94;5010891;28;20038;-83
2023/07/17 09:44:51;;;;;;;0.00;0.00;;;;;;;35.31;nan;100822.72;5014378;28;20056;-82
2023/07/17 09:47:18;;;;;;;0.00;0.00;;;;;;;35.76;nan;100829.38;5013712;28;20045;-84
2023/07/17 09:49:44;;;;;;;0.00;0.00;;;;;;;35.98;nan;100821.06;5006259;28;20065;-84
2023/07/17 09:52:09;;;;;;;0.00;0.00;;;;;;;36.80;nan;100820.75;5014714;28;20128;-83
2023/07/17 09:54:37;;;;;;;0.00;0.00;;;;;;;36.61;nan;100818.28;5015392;28;20060;-83
2023/07/17 09:57:04;;;;;;;0.00;0.00;;;;;;;36.95;nan;100825.81;5013892;28;20034;-83
2023/07/17 09:59:33;;;;;;;0.00;0.00;;;;;;;37.54;nan;100823.44;5010843;28;20041;-83
2023/07/17 10:02:00;;;;;;;0.00;0.00;;;;;;;37.85;nan;100813.28;5011554;28;20129;-83
2023/07/17 10:04:31;;;;;;;0.00;0.00;;;;;;;37.72;nan;100815.09;5012086;28;20403;-83
2023/07/17 10:07:00;;;;;;;0.00;0.00;;;;;;;37.99;nan;100820.22;5011340;28;20030;-83
2023/07/17 10:09:26;;;;;;;0.00;0.00;;;;;;;37.57;nan;100813.69;5005447;28;20522;-84
2023/07/17 10:11:52;;;;;;;0.00;0.00;;;;;;;36.44;nan;100811.56;5018387;28;20033;-82
2023/07/17 10:14:17;;;;;;;0.00;0.00;;;;;;;35.96;nan;100811.50;5013850;28;20044;-83
2023/07/17 10:16:43;;;;;;;0.00;0.00;;;;;;;36.95;nan;100821.09;5021585;28;20175;-83
2023/07/17 10:19:09;;;;;;;0.00;0.00;;;;;;;35.97;nan;100813.13;5013059;28;20113;-83
2023/07/17 10:21:52;;;;;;;0.00;0.00;;;;;;;35.46;nan;100815.22;5023963;28;20042;-83
2023/07/17 10:24:22;;;;;;;0.00;0.00;;;;;;;35.86;nan;100818.09;5004720;28;20061;-82
2023/07/17 10:26:48;;;;;;;0.00;0.00;;;;;;;35.88;nan;100816.66;5016274;28;20071;-81
2023/07/17 10:29:14;;;;;;;0.00;0.00;;;;;;;35.42;nan;100797.72;5011979;28;20030;-82
2023/07/17 10:31:48;;;;;;;0.00;0.00;;;;;;;34.56;nan;100804.81;5013135;28;20036;-82
2023/07/17 10:34:14;;;;;;;0.00;0.00;;;;;;;34.13;nan;100818.03;5017390;28;20042;-82
2023/07/17 10:36:44;;;;;;;0.00;0.00;;;;;;;34.26;nan;100809.81;5026934;28;20037;-82
2023/07/17 10:39:18;;;;;;;0.00;0.00;;;;;;;34.48;nan;100806.34;5027693;28;20056;-82
2023/07/17 10:41:43;;;;;;;0.00;0.00;;;;;;;36.13;nan;100817.94;5018103;28;20811;-81
2023/07/17 10:44:18;;;;;;;0.00;0.00;;;;;;;37.56;nan;100806.53;5015760;28;20041;-81
2023/07/17 10:46:43;;;;;;;0.00;0.00;;;;;;;38.54;nan;100806.69;5028483;28;20057;-80
2023/07/17 10:49:13;;;;;;;0.00;0.00;;;;;;;38.88;nan;100803.69;5023689;28;20037;-83
2023/07/17 10:51:43;;;;;;;0.00;0.00;;;;;;;39.04;nan;100812.19;5015022;28;20095;-82
2023/07/17 10:54:08;;;;;;;0.00;0.00;;;;;;;38.31;nan;100793.16;5013665;28;20041;-83
2023/07/17 10:56:34;;;;;;;0.00;0.00;;;;;;;37.80;nan;100801.25;5009874;28;20041;-83
2023/07/17 10:58:59;;;;;;;0.00;0.00;;;;;;;36.21;nan;100791.59;5010848;28;20065;-82
2023/07/17 11:01:25;;;;;;;0.00;0.00;;;;;;;36.12;nan;100804.50;5012258;28;20037;-82
2023/07/17 11:03:53;;;;;;;0.00;0.00;;;;;;;37.00;nan;100800.84;5018418;28;20116;-82
2023/07/17 11:06:19;;;;;;;0.00;0.00;;;;;;;37.08;nan;100796.50;5022383;28;20112;-81
2023/07/17 11:08:49;;;;;;;0.00;0.00;;;;;;;38.00;nan;100798.97;5030295;28;20040;-82
2023/07/17 11:11:14;;;;;;;0.00;0.00;;;;;;;38.13;nan;100800.69;5015138;28;20038;-82
2023/07/17 11:13:43;;;;;;;0.00;0.00;;;;;;;38.34;nan;100797.19;5022849;28;20036;-82
2023/07/17 11:16:10;;;;;;;0.00;0.00;;;;;;;37.79;nan;100805.19;5012559;28;20041;-81
2023/07/17 11:18:42;;;;;;;0.00;0.00;;;;;;;37.30;nan;100798.25;5010412;28;20092;-82
2023/07/17 11:21:09;;;;;;;0.00;0.00;;;;;;;36.09;nan;100791.34;5026880;28;20041;-81
2023/07/17 11:23:34;;;;;;;0.00;0.00;;;;;;;34.67;nan;100799.97;5017012;28;20133;-81
2023/07/17 11:25:59;;;;;;;0.00;0.00;;;;;;;34.28;nan;100794.97;5013744;28;20058;-80
2023/07/17 11:28:25;;;;;;;0.00;0.00;;;;;;;33.41;nan;100787.13;5012909;28;20273;-80
2023/07/17 11:30:50;;;;;;;0.00;0.00;;;;;;;34.37;nan;100793.97;5014081;28;20283;-82
2023/07/17 11:33:16;;;;;;;0.00;0.00;;;;;;;36.03;nan;100801.66;5013912;28;20061;-82
2023/07/17 11:35:48;;;;;;;0.00;0.00;;;;;;;37.13;nan;100783.34;5016010;28;20319;-81
2023/07/17 11:38:15;;;;;;;0.00;0.00;;;;;;;37.81;nan;100807.63;5024131;28;20500;-82
2023/07/17 11:40:54;;;;;;;0.00;0.00;;;;;;;38.45;nan;100795.66;5015010;28;20034;-82
2023/07/17 11:43:24;;;;;;;0.00;0.00;;;;;;;39.41;nan;100787.50;5011259;28;20065;-82
2023/07/17 11:45:49;;;;;;;0.00;0.00;;;;;;;39.81;nan;100792.47;5015462;28;20064;-82
2023/07/17 11:48:14;;;;;;;0.00;0.00;;;;;;;39.96;nan;100787.41;5016389;28;20037;-82